createdAt,value
2024-03-05T00:01:38.830Z,100.00
2024-03-05T00:04:09.531Z,100.00
2024-03-05T00:06:39.015Z,100.00
2024-03-05T00:09:06.819Z,100.00
2024-03-05T00:11:34.734Z,100.00
2024-03-05T00:14:02.595Z,100.00
2024-03-05T00:16:30.612Z,100.00
2024-03-05T00:18:58.244Z,100.00
2024-03-05T00:21:26.152Z,100.00
2024-03-05T00:23:53.849Z,100.00
2024-03-05T00:26:22.939Z,100.00
2024-03-05T00:28:50.987Z,100.00
2024-03-05T00:31:18.834Z,100.00
2024-03-05T00:33:47.966Z,100.00
2024-03-05T00:36:15.689Z,100.00
2024-03-05T00:38:43.499Z,100.00
2024-03-05T00:41:11.198Z,100.00
2024-03-05T00:43:38.904Z,100.00
2024-03-05T00:46:07.345Z,100.00
2024-03-05T00:48:35.211Z,100.00
2024-03-05T00:51:03.669Z,100.00
2024-03-05T00:53:31.635Z,100.00
2024-03-05T00:55:59.327Z,100.00
2024-03-05T00:58:27.613Z,100.00
2024-03-05T01:00:55.725Z,100.00
2024-03-05T01:03:23.351Z,100.00
2024-03-05T01:05:50.980Z,100.00
2024-03-05T01:08:18.655Z,100.00
2024-03-05T01:10:47.214Z,100.00
2024-03-05T01:13:15.813Z,100.00
2024-03-05T01:15:43.518Z,100.00
2024-03-05T01:18:11.270Z,100.00
2024-03-05T01:20:42.777Z,100.00
2024-03-05T01:23:13.339Z,100.00
2024-03-05T01:25:41.266Z,100.00
2024-03-05T01:28:09.154Z,100.00
2024-03-05T01:30:38.152Z,100.00
2024-03-05T01:33:07.155Z,100.00
2024-03-05T01:35:34.791Z,100.00
2024-03-05T01:38:02.414Z,100.00
2024-03-05T01:40:30.248Z,100.00
2024-03-05T01:42:59.033Z,100.00
2024-03-05T01:45:27.218Z,100.00
2024-03-05T01:47:54.962Z,100.00
2024-03-05T01:50:23.917Z,100.00
2024-03-05T01:52:51.853Z,100.00
2024-03-05T01:55:20.509Z,100.00
2024-03-05T01:57:49.807Z,100.00
2024-03-05T02:00:17.625Z,100.00
2024-03-05T02:02:45.372Z,100.00
2024-03-05T02:05:14.023Z,100.00
2024-03-05T02:07:42.179Z,100.00
2024-03-05T02:10:10.351Z,100.00
2024-03-05T02:12:38.240Z,100.00
2024-03-05T02:15:06.306Z,100.00
2024-03-05T02:17:33.975Z,100.00
2024-03-05T02:20:02.498Z,100.00
2024-03-05T02:22:30.150Z,100.00
2024-03-05T02:24:57.754Z,100.00
2024-03-05T02:27:30.460Z,100.00
2024-03-05T02:30:04.169Z,100.00
2024-03-05T02:32:32.227Z,100.00
2024-03-05T02:35:00.041Z,100.00
2024-03-05T02:37:28.019Z,100.00
2024-03-05T02:39:55.675Z,100.00
2024-03-05T02:42:24.078Z,100.00
2024-03-05T02:44:51.670Z,100.00
2024-03-05T02:47:19.275Z,100.00
2024-03-05T02:49:47.134Z,100.00
2024-03-05T02:52:15.290Z,100.00
2024-03-05T02:54:42.819Z,100.00
2024-03-05T02:57:10.438Z,100.00
2024-03-05T02:59:38.045Z,100.00
2024-03-05T03:02:06.413Z,100.00
2024-03-05T03:04:34.130Z,100.00
2024-03-05T03:07:01.757Z,100.00
2024-03-05T03:09:29.963Z,100.00
2024-03-05T03:11:58.182Z,100.00
2024-03-05T03:14:25.749Z,100.00
2024-03-05T03:16:53.758Z,100.00
2024-03-05T03:19:21.475Z,100.00
2024-03-05T03:21:49.049Z,100.00
2024-03-05T03:24:16.668Z,100.00
2024-03-05T03:26:44.288Z,100.00
2024-03-05T03:29:14.890Z,100.00
2024-03-05T03:31:48.243Z,100.00
2024-03-05T03:34:18.848Z,100.00
2024-03-05T03:36:46.519Z,100.00
2024-03-05T03:39:25.003Z,100.00
2024-03-05T03:41:54.842Z,100.00
2024-03-05T03:44:23.777Z,100.00
2024-03-05T03:46:51.869Z,100.00
2024-03-05T03:49:21.316Z,100.00
2024-03-05T03:51:48.961Z,100.00
2024-03-05T03:54:16.571Z,100.00
2024-03-05T03:56:44.193Z,100.00
2024-03-05T03:59:12.014Z,100.00
2024-03-05T04:01:39.662Z,100.00
2024-03-05T04:04:07.269Z,100.00
2024-03-05T04:06:34.873Z,100.00
2024-03-05T04:09:02.501Z,100.00
2024-03-05T04:11:30.127Z,100.00
2024-03-05T04:13:58.492Z,100.00
2024-03-05T04:16:26.942Z,100.00
2024-03-05T04:18:55.095Z,100.00
2024-03-05T04:21:22.807Z,100.00
2024-03-05T04:23:50.660Z,100.00
2024-03-05T04:26:24.668Z,100.00
2024-03-05T04:28:54.219Z,100.00
2024-03-05T04:31:25.055Z,100.00
2024-03-05T04:34:00.338Z,100.00
2024-03-05T04:36:27.977Z,100.00
2024-03-05T04:38:55.552Z,100.00
2024-03-05T04:41:23.628Z,100.00
2024-03-05T04:43:51.762Z,100.00
2024-03-05T04:46:19.717Z,100.00
2024-03-05T04:48:49.129Z,100.00
2024-03-05T04:51:16.794Z,100.00
2024-03-05T04:53:44.619Z,100.00
2024-03-05T04:56:13.676Z,100.00
2024-03-05T04:58:41.316Z,100.00
2024-03-05T05:01:08.970Z,100.00
2024-03-05T05:03:36.847Z,100.00
2024-03-05T05:06:04.556Z,100.00
2024-03-05T05:08:32.154Z,100.00
2024-03-05T05:11:00.074Z,100.00
2024-03-05T05:13:27.945Z,100.00
2024-03-05T05:15:59.754Z,100.00
2024-03-05T05:18:27.351Z,100.00
2024-03-05T05:20:54.949Z,100.00
2024-03-05T05:23:22.548Z,100.00
2024-03-05T05:25:50.150Z,100.00
2024-03-05T05:28:17.803Z,100.00
2024-03-05T05:30:45.496Z,100.00
2024-03-05T05:33:13.471Z,100.00
2024-03-05T05:35:41.476Z,100.00
2024-03-05T05:38:12.049Z,100.00
2024-03-05T05:40:39.729Z,100.00
2024-03-05T05:43:09.378Z,100.00
2024-03-05T05:45:37.091Z,100.00
2024-03-05T05:48:05.053Z,100.00
2024-03-05T05:50:33.085Z,100.00
2024-03-05T05:53:01.264Z,100.00
2024-03-05T05:55:29.857Z,100.00
2024-03-05T05:57:58.552Z,100.00
2024-03-05T06:00:34.501Z,100.00
2024-03-05T06:03:06.018Z,100.00
2024-03-05T06:05:36.417Z,100.00
2024-03-05T06:08:16.151Z,100.00
2024-03-05T06:10:44.305Z,100.00
2024-03-05T06:13:12.315Z,100.00
2024-03-05T06:15:40.230Z,100.00
2024-03-05T06:18:08.069Z,100.00
2024-03-05T06:20:35.709Z,100.00
2024-03-05T06:23:04.106Z,100.00
2024-03-05T06:25:31.821Z,100.00
2024-03-05T06:28:00.533Z,100.00
2024-03-05T06:30:28.073Z,100.00
2024-03-05T06:32:55.798Z,100.00
2024-03-05T06:35:25.332Z,100.00
2024-03-05T06:37:55.082Z,100.00
2024-03-05T06:40:25.266Z,100.00
2024-03-05T06:42:54.258Z,100.00
2024-03-05T06:45:29.372Z,100.00
2024-03-05T06:50:35.718Z,100.00
2024-03-05T06:53:22.440Z,100.00
2024-03-05T06:56:09.028Z,100.00
2024-03-05T06:58:37.347Z,100.00
2024-03-05T07:01:08.628Z,100.00
2024-03-05T07:03:36.490Z,100.00
2024-03-05T07:06:14.664Z,100.00
2024-03-05T07:08:45.883Z,100.00
2024-03-05T07:11:14.387Z,100.00
2024-03-05T07:13:45.035Z,100.00
2024-03-05T07:16:18.002Z,100.00
2024-03-05T07:18:52.357Z,100.00
2024-03-05T07:21:21.889Z,100.00
2024-03-05T07:23:50.358Z,100.00
2024-03-05T07:26:18.157Z,100.00
2024-03-05T07:28:46.362Z,100.00
2024-03-05T07:31:15.207Z,100.00
2024-03-05T07:33:43.372Z,100.00
2024-03-05T07:36:10.934Z,100.00
2024-03-05T07:38:39.809Z,100.00
2024-03-05T07:41:17.513Z,100.00
2024-03-05T07:43:50.807Z,100.00
2024-03-05T07:46:21.234Z,100.00
2024-03-05T07:48:48.816Z,100.00
2024-03-05T07:51:23.949Z,100.00
2024-03-05T07:53:52.979Z,100.00
2024-03-05T07:56:20.559Z,100.00
2024-03-05T07:58:48.199Z,100.00
2024-03-05T08:01:15.900Z,100.00
2024-03-05T08:03:43.506Z,100.00
2024-03-05T08:06:11.091Z,100.00
2024-03-05T08:08:38.761Z,100.00
2024-03-05T08:11:06.430Z,100.00
2024-03-05T08:13:37.148Z,100.00
2024-03-05T08:16:05.920Z,100.00
2024-03-05T08:18:33.772Z,100.00
2024-03-05T08:21:03.000Z,100.00
2024-03-05T08:23:30.725Z,100.00
2024-03-05T08:25:58.432Z,100.00
2024-03-05T08:28:26.229Z,100.00
2024-03-05T08:30:55.323Z,100.00
2024-03-05T08:33:25.480Z,100.00
2024-03-05T08:35:53.365Z,100.00
2024-03-05T08:38:22.401Z,100.00
2024-03-05T08:40:51.508Z,100.00
2024-03-05T08:43:19.409Z,100.00
2024-03-05T08:45:48.088Z,100.00
2024-03-05T08:48:15.774Z,100.00
2024-03-05T08:50:43.402Z,100.00
2024-03-05T08:53:11.296Z,100.00
2024-03-05T08:55:40.423Z,100.00
2024-03-05T08:58:10.572Z,100.00
2024-03-05T09:00:43.291Z,100.00
2024-03-05T09:03:13.462Z,100.00
2024-03-05T09:05:44.372Z,100.00
2024-03-05T09:08:15.327Z,100.00
2024-03-05T09:10:44.638Z,100.00
2024-03-05T09:13:12.281Z,100.00
2024-03-05T09:15:43.767Z,100.00
2024-03-05T09:18:14.731Z,100.00
2024-03-05T09:20:43.498Z,100.00
2024-03-05T09:23:11.454Z,100.00
2024-03-05T09:25:43.556Z,100.00
2024-03-05T09:28:12.193Z,100.00
2024-03-05T09:30:40.532Z,100.00
2024-03-05T09:33:11.676Z,100.00
2024-03-05T09:35:40.325Z,100.00
2024-03-05T09:38:08.780Z,100.00
2024-03-05T09:40:36.807Z,100.00
2024-03-05T09:43:05.745Z,100.00
2024-03-05T09:45:37.709Z,100.00
2024-03-05T09:48:06.306Z,100.00
2024-03-05T09:50:34.799Z,100.00
2024-03-05T09:53:02.735Z,100.00
2024-03-05T09:55:32.095Z,100.00
2024-03-05T09:58:04.945Z,99.18
2024-03-05T10:00:33.235Z,99.44
2024-03-05T10:03:00.884Z,98.02
2024-03-05T10:05:29.043Z,96.33
2024-03-05T10:07:56.669Z,98.22
2024-03-05T10:10:26.816Z,96.26
2024-03-05T10:12:54.358Z,96.10
2024-03-05T10:15:27.019Z,93.58
2024-03-05T10:17:56.556Z,91.77
2024-03-05T10:20:28.638Z,93.21
2024-03-05T10:22:59.755Z,93.61
2024-03-05T10:25:31.836Z,95.57
2024-03-05T10:28:00.985Z,92.25
2024-03-05T10:30:34.166Z,90.14
2024-03-05T10:33:03.948Z,88.02
2024-03-05T10:35:33.271Z,89.68
2024-03-05T10:38:01.967Z,88.95
2024-03-05T10:40:33.613Z,88.97
2024-03-05T10:43:02.510Z,91.28
2024-03-05T10:45:31.933Z,96.08
2024-03-05T10:48:00.499Z,98.24
2024-03-05T10:50:29.184Z,99.00
2024-03-05T10:52:57.773Z,99.91
2024-03-05T10:55:26.160Z,98.83
2024-03-05T10:58:13.325Z,99.66
2024-03-05T11:00:43.111Z,99.10
2024-03-05T11:03:11.651Z,98.88
2024-03-05T11:05:49.247Z,96.08
2024-03-05T11:08:22.950Z,94.03
2024-03-05T11:11:11.334Z,92.58
2024-03-05T11:13:40.517Z,93.39
2024-03-05T11:16:09.750Z,92.96
2024-03-05T11:18:38.531Z,93.65
2024-03-05T11:21:10.898Z,91.66
2024-03-05T11:23:41.665Z,93.42
2024-03-05T11:26:17.886Z,95.46
2024-03-05T11:28:45.561Z,96.16
2024-03-05T11:31:21.081Z,97.46
2024-03-05T11:33:58.732Z,96.64
2024-03-05T11:36:26.340Z,96.28
2024-03-05T11:39:02.929Z,91.33
2024-03-05T11:41:37.939Z,92.19
2024-03-05T11:44:06.074Z,97.64
2024-03-05T11:46:39.885Z,99.79
2024-03-05T11:49:08.162Z,100.00
2024-03-05T11:51:36.071Z,99.97
2024-03-05T11:54:03.672Z,99.73
2024-03-05T11:56:31.579Z,99.82
2024-03-05T11:58:59.266Z,99.16
2024-03-05T12:01:27.150Z,98.40
2024-03-05T12:04:04.909Z,97.52
2024-03-05T12:06:32.608Z,98.71
2024-03-05T12:09:20.329Z,99.61
2024-03-05T12:12:05.086Z,99.13
2024-03-05T12:14:34.316Z,97.97
2024-03-05T12:17:05.251Z,98.92
2024-03-05T12:19:33.441Z,98.85
2024-03-05T12:22:01.641Z,98.98
2024-03-05T12:24:29.724Z,98.87
2024-03-05T12:26:58.438Z,98.10
2024-03-05T12:29:32.124Z,98.52
2024-03-05T12:32:03.057Z,98.85
2024-03-05T12:34:30.797Z,97.61
2024-03-05T12:36:58.373Z,98.60
2024-03-05T12:39:26.123Z,97.55
2024-03-05T12:42:06.949Z,98.33
2024-03-05T12:44:35.162Z,97.49
2024-03-05T12:47:14.350Z,98.89
2024-03-05T12:49:45.889Z,98.98
2024-03-05T12:52:18.542Z,98.53
2024-03-05T12:54:46.424Z,98.96
2024-03-05T12:57:30.938Z,99.08
2024-03-05T13:00:02.068Z,98.23
2024-03-05T13:02:30.180Z,98.93
2024-03-05T13:04:59.354Z,97.37
2024-03-05T13:07:27.955Z,94.23
2024-03-05T13:09:55.867Z,94.47
2024-03-05T13:12:24.701Z,95.28
2024-03-05T13:14:52.474Z,93.73
2024-03-05T13:17:20.962Z,94.01
2024-03-05T13:19:48.600Z,93.69
2024-03-05T13:22:16.568Z,93.33
2024-03-05T13:24:44.592Z,92.37
2024-03-05T13:27:13.708Z,94.47
2024-03-05T13:29:41.499Z,96.35
2024-03-05T13:32:09.172Z,95.18
2024-03-05T13:34:36.822Z,96.08
2024-03-05T13:37:04.699Z,94.88
2024-03-05T13:39:32.608Z,94.74
2024-03-05T13:42:00.294Z,93.95
2024-03-05T13:44:28.718Z,96.27
2024-03-05T13:46:56.382Z,98.18
2024-03-05T13:49:25.523Z,99.81
2024-03-05T13:51:53.445Z,99.85
2024-03-05T13:54:21.068Z,100.00
2024-03-05T13:56:50.311Z,100.00
2024-03-05T13:59:18.227Z,100.00
2024-03-05T14:01:45.819Z,100.00
2024-03-05T14:04:13.451Z,98.84
2024-03-05T14:06:42.519Z,99.09
2024-03-05T14:09:10.720Z,99.07
2024-03-05T14:11:41.726Z,100.00
2024-03-05T14:14:09.924Z,99.86
2024-03-05T14:16:40.054Z,100.00
2024-03-05T14:19:08.950Z,100.00
2024-03-05T14:21:37.158Z,100.00
2024-03-05T14:24:05.018Z,100.00
2024-03-05T14:26:32.715Z,100.00
2024-03-05T14:29:05.298Z,100.00
2024-03-05T14:31:34.586Z,100.00
2024-03-05T14:34:02.480Z,100.00
2024-03-05T14:36:32.639Z,100.00
2024-03-05T14:39:03.028Z,100.00
2024-03-05T14:41:30.834Z,100.00
2024-03-05T14:43:58.574Z,100.00
2024-03-05T14:46:26.498Z,100.00
2024-03-05T14:48:54.300Z,100.00
2024-03-05T14:51:25.457Z,100.00
2024-03-05T14:53:59.545Z,98.08
2024-03-05T14:56:31.367Z,98.98
2024-03-05T14:58:59.270Z,98.37
2024-03-05T15:01:27.200Z,97.65
2024-03-05T15:03:54.951Z,100.00
2024-03-05T15:06:22.742Z,99.90
2024-03-05T15:08:50.675Z,100.00
2024-03-05T15:11:18.668Z,100.00
2024-03-05T15:13:46.443Z,100.00
2024-03-05T15:16:15.123Z,100.00
2024-03-05T15:18:42.844Z,100.00
2024-03-05T15:21:15.492Z,100.00
2024-03-05T15:23:43.809Z,100.00
2024-03-05T15:26:11.991Z,100.00
2024-03-05T15:28:42.356Z,100.00
2024-03-05T15:31:11.897Z,100.00
2024-03-05T15:33:40.267Z,100.00
2024-03-05T15:36:08.631Z,93.62
2024-03-05T15:38:36.616Z,91.25
2024-03-05T15:41:08.034Z,90.36
2024-03-05T15:43:37.134Z,90.09
2024-03-05T15:46:07.890Z,91.93
2024-03-05T15:48:35.787Z,89.44
2024-03-05T15:51:04.404Z,90.76
2024-03-05T15:53:32.305Z,90.11
2024-03-05T15:56:02.943Z,91.19
2024-03-05T15:58:57.251Z,91.63
2024-03-05T16:01:27.277Z,92.73
2024-03-05T16:04:09.238Z,94.87
2024-03-05T16:06:43.113Z,92.97
2024-03-05T16:09:10.804Z,94.12
2024-03-05T16:11:38.765Z,94.66
2024-03-05T16:14:06.925Z,91.92
2024-03-05T16:16:38.961Z,90.07
2024-03-05T16:19:07.510Z,89.43
2024-03-05T16:21:35.365Z,87.46
2024-03-05T16:24:06.265Z,86.88
2024-03-05T16:26:34.291Z,88.12
2024-03-05T16:29:02.095Z,90.16
2024-03-05T16:31:29.979Z,90.80
2024-03-05T16:34:02.345Z,88.86
2024-03-05T16:36:30.162Z,89.80
2024-03-05T16:38:57.963Z,89.07
2024-03-05T16:41:25.671Z,89.63
2024-03-05T16:43:55.215Z,92.23
2024-03-05T16:46:22.985Z,94.54
2024-03-05T16:48:50.720Z,99.10
2024-03-05T16:51:18.412Z,96.42
2024-03-05T16:53:46.279Z,92.92
2024-03-05T16:56:14.072Z,91.45
2024-03-05T16:58:43.189Z,91.42
2024-03-05T17:01:13.986Z,91.22
2024-03-05T17:03:46.285Z,92.67
2024-03-05T17:06:20.250Z,92.39
2024-03-05T17:08:50.620Z,93.41
2024-03-05T17:11:18.858Z,93.60
2024-03-05T17:13:49.607Z,92.73
2024-03-05T17:16:18.642Z,92.74
2024-03-05T17:18:46.770Z,93.03
2024-03-05T17:21:14.796Z,92.81
2024-03-05T17:23:46.394Z,92.73
2024-03-05T17:26:16.663Z,91.28
2024-03-05T17:28:44.996Z,93.84
2024-03-05T17:31:13.164Z,93.61
2024-03-05T17:33:40.868Z,94.13
2024-03-05T17:36:08.913Z,94.41
2024-03-05T17:38:36.506Z,93.78
2024-03-05T17:41:04.923Z,92.97
2024-03-05T17:43:32.763Z,92.84
2024-03-05T17:46:02.570Z,92.83
2024-03-05T17:48:31.026Z,91.68
2024-03-05T17:51:02.045Z,91.71
2024-03-05T17:53:29.772Z,93.02
2024-03-05T17:55:57.578Z,93.52
2024-03-05T17:58:25.584Z,91.81
2024-03-05T18:00:53.618Z,92.27
2024-03-05T18:03:22.783Z,91.63
2024-03-05T18:05:50.759Z,92.28
2024-03-05T18:08:18.564Z,93.47
2024-03-05T18:10:47.121Z,92.33
2024-03-05T18:13:17.006Z,91.58
2024-03-05T18:15:46.829Z,92.26
2024-03-05T18:18:15.866Z,91.51
2024-03-05T18:20:45.006Z,91.33
2024-03-05T18:23:14.326Z,91.54
2024-03-05T18:25:43.339Z,91.60
2024-03-05T18:28:11.277Z,91.00
2024-03-05T18:30:40.113Z,91.89
2024-03-05T18:33:09.632Z,91.71
2024-03-05T18:35:40.778Z,91.01
2024-03-05T18:40:41.531Z,90.93
2024-03-05T18:43:11.105Z,91.01
2024-03-05T18:45:41.207Z,90.94
2024-03-05T18:48:10.520Z,90.73
2024-03-05T18:50:39.118Z,91.95
2024-03-05T18:53:09.254Z,91.49
2024-03-05T18:55:38.017Z,90.59
2024-03-05T18:58:09.647Z,91.47
2024-03-05T19:00:38.495Z,94.04
2024-03-05T19:03:06.751Z,97.76
2024-03-05T19:05:37.917Z,96.46
2024-03-05T19:08:08.757Z,96.82
2024-03-05T19:10:38.312Z,95.98
2024-03-05T19:13:07.220Z,98.21
2024-03-05T19:15:34.939Z,97.39
2024-03-05T19:18:05.650Z,96.99
2024-03-05T19:20:33.476Z,96.39
2024-03-05T19:23:01.614Z,96.35
2024-03-05T19:25:29.611Z,97.49
2024-03-05T19:27:57.692Z,98.66
2024-03-05T19:30:25.660Z,100.00
2024-03-05T19:32:53.421Z,100.00
2024-03-05T19:35:26.368Z,100.00
2024-03-05T19:37:55.168Z,100.00
2024-03-05T19:40:25.337Z,100.00
2024-03-05T19:42:59.246Z,100.00
2024-03-05T19:45:30.833Z,100.00
2024-03-05T19:47:59.278Z,100.00
2024-03-05T19:50:28.037Z,100.00
2024-03-05T19:52:57.469Z,100.00
2024-03-05T19:55:25.584Z,100.00
2024-03-05T19:57:53.629Z,100.00
2024-03-05T20:00:25.046Z,100.00
2024-03-05T20:02:55.082Z,100.00
2024-03-05T20:05:23.800Z,100.00
2024-03-05T20:07:53.612Z,100.00
2024-03-05T20:10:22.636Z,100.00
2024-03-05T20:12:50.580Z,100.00
2024-03-05T20:15:19.090Z,100.00
2024-03-05T20:17:47.618Z,100.00
2024-03-05T20:20:19.392Z,100.00
2024-03-05T20:22:49.103Z,100.00
2024-03-05T20:25:22.568Z,100.00
2024-03-05T20:27:52.558Z,100.00
2024-03-05T20:30:20.874Z,100.00
2024-03-05T20:32:48.966Z,100.00
2024-03-05T20:35:18.473Z,100.00
2024-03-05T20:37:51.919Z,100.00
2024-03-05T20:40:23.959Z,100.00
2024-03-05T20:42:51.709Z,100.00
2024-03-05T20:45:20.041Z,100.00
2024-03-05T20:47:49.699Z,100.00
2024-03-05T20:50:19.408Z,100.00
2024-03-05T20:52:47.168Z,100.00
2024-03-05T20:55:14.787Z,100.00
2024-03-05T20:57:46.109Z,100.00
2024-03-05T21:00:21.851Z,100.00
2024-03-05T21:02:53.039Z,100.00
2024-03-05T21:05:20.873Z,100.00
2024-03-05T21:07:55.133Z,100.00
2024-03-05T21:10:23.149Z,100.00
2024-03-05T21:12:50.880Z,100.00
2024-03-05T21:15:21.575Z,100.00
2024-03-05T21:17:49.602Z,100.00
2024-03-05T21:20:17.611Z,100.00
2024-03-05T21:22:45.697Z,100.00
2024-03-05T21:25:13.394Z,100.00
2024-03-05T21:27:42.081Z,100.00
2024-03-05T21:30:10.639Z,100.00
2024-03-05T21:32:38.417Z,100.00
2024-03-05T21:35:06.975Z,100.00
2024-03-05T21:37:37.146Z,100.00
2024-03-05T21:40:08.946Z,100.00
2024-03-05T21:42:36.757Z,100.00
2024-03-05T21:45:04.724Z,100.00
2024-03-05T21:47:32.533Z,100.00
2024-03-05T21:50:01.288Z,99.44
2024-03-05T21:52:29.210Z,97.71
2024-03-05T21:54:56.768Z,96.12
2024-03-05T21:57:24.451Z,98.47
2024-03-05T21:59:52.140Z,100.00
2024-03-05T22:02:19.722Z,98.80
2024-03-05T22:04:47.375Z,99.09
2024-03-05T22:07:15.046Z,99.39
2024-03-05T22:09:42.780Z,97.65
2024-03-05T22:12:10.588Z,96.66
2024-03-05T22:14:39.614Z,97.42
2024-03-05T22:17:10.146Z,98.53
2024-03-05T22:19:38.374Z,98.92
2024-03-05T22:22:06.197Z,99.32
2024-03-05T22:24:33.826Z,99.61
2024-03-05T22:27:01.533Z,100.00
2024-03-05T22:29:29.281Z,100.00
2024-03-05T22:31:57.303Z,100.00
2024-03-05T22:34:25.314Z,100.00
2024-03-05T22:36:53.037Z,100.00
2024-03-05T22:39:20.983Z,100.00
2024-03-05T22:41:48.742Z,100.00
2024-03-05T22:44:16.550Z,100.00
2024-03-05T22:46:44.243Z,100.00
2024-03-05T22:49:12.058Z,100.00
2024-03-05T22:51:39.605Z,100.00
2024-03-05T22:54:07.539Z,100.00
2024-03-05T22:56:35.142Z,100.00
2024-03-05T22:59:02.803Z,100.00
2024-03-05T23:01:30.641Z,100.00
2024-03-05T23:03:58.287Z,100.00
2024-03-05T23:06:26.803Z,100.00
2024-03-05T23:08:55.180Z,100.00
2024-03-05T23:11:22.922Z,100.00
2024-03-05T23:13:50.648Z,100.00
2024-03-05T23:16:18.233Z,100.00
2024-03-05T23:18:45.769Z,100.00
2024-03-05T23:21:13.321Z,100.00
2024-03-05T23:23:43.874Z,100.00
2024-03-05T23:26:11.724Z,100.00
2024-03-05T23:28:40.211Z,100.00
2024-03-05T23:31:07.993Z,100.00
2024-03-05T23:33:35.827Z,100.00
2024-03-05T23:36:03.478Z,100.00
2024-03-05T23:38:31.804Z,100.00
2024-03-05T23:41:00.143Z,100.00
2024-03-05T23:43:27.948Z,100.00
2024-03-05T23:45:55.796Z,100.00
2024-03-05T23:48:23.463Z,100.00
2024-03-05T23:50:51.060Z,100.00
2024-03-05T23:53:19.425Z,100.00
2024-03-05T23:55:47.211Z,100.00
2024-03-05T23:58:15.013Z,100.00
